Skip Navigation Links
NOAA logo - Click to go to the NOAA homepage
NOAA's National Weather Service
Alaska Aviation Weather Unit
  NWS logo - Click to go to the NWS homepage
Left Navbar Graphic     21 AKDT = 05 GMT

   
NOAA is celebrating 200 years of science, service, and stewardship. Visit the NOAA 200th celebration Web site to learn more.
USA.gov is the U.S. Government's official Web portal to all Federal, state and local government Web resources and services.
Facebook
NWS on Facebook

Important Change Regarding the AAWU Web Presence

 

Over the last several months, the AAWU has been working to navigate its webpages to a nationally supported server. Security, as well as other needs, have necessitated the change.  In the process, we have made an effort to enhance the functionality of our website, as well as some of our products. As of June 27, 2017, aawu.arh.noaa.gov will be discontinued. The new AAWU web address is weather.gov/aawu. It is now live and will run in-parallel with the old site until it is discontinued. Please send any feedback or questions regarding the new webpages to nws.ar.aawu.webauthors@noaa.gov.  Thank you for your patience during this time of transition.
AAWU Home :: Display TAF Add Bookmark
TAF PASN 260311Z 2603/2624 16010KT 1/2SM FG VV002
      TEMPO 2603/2606 2SM BR OVC005
     FM260600 20011KT P6SM OVC005=
METAR PASN 252353Z AUTO 12014KT 1 1/4SM BR OVC004 08/08 A2944 RMK AO2
     SLP971 60000 T00780078 10083 20078 56016 TSNO=

PASN 260042Z AUTO 12014KT 3/4SM BR VV003 08/08 A2943=

PASN 260049Z AUTO 12013KT 1/2SM FG VV003 08/07 A2943=

METAR PASN 260053Z AUTO 12011KT 1/2SM FG VV002 08/08 A2942 RMK AO2
     SLP964 T00780078 TSNO=

METAR PASN 260153Z AUTO 13010KT 1/2SM FG VV002 07/07 A2941 RMK AO2
     SLP960 T00720072 TSNO=

METAR PASN 260253Z AUTO 16010KT 1/2SM FG VV002 07/07 A2940 RMK AO2
     SLP956 T00720072 58009 TSNO=

METAR PASN 260353Z AUTO 17009KT 1/2SM FG VV002 08/08 A2939 RMK AO2
     RAB0259E18 SLP954 P0000 T00780078 TSNO=

PASN 260411Z AUTO 18009KT 3/4SM -RA BR VV003 08/08 A2940=

PASN 260436Z AUTO 19009KT 1 1/4SM BR OVC003 08/08 A2940=

PASN 260449Z AUTO 19009KT 3SM BR OVC003 07/07 A2940=

METAR PASN 260453Z AUTO 19008KT 4SM BR OVC003 07/07 A2940 RMK AO2
     RAB04E29 SLP955 P0000 T00720072 TSNO=

PASN 260508Z AUTO 21009KT 2SM BR OVC003 07/07 A2940=

SPECI PASN 260522Z AUTO 22011KT 4SM BR OVC003 08/07 A2940 RMK AO2
 T00780072 TSNO=


NOAA's National Weather Service
Alaska Aviation Weather Unit
6930 Sand Lake Road
Anchorage, AK 99502-1845
Disclaimer
Credits
Glossary
Privacy Policy
About Us
Career Opportunities
Contact AAWU Internet Services Site last modified: April, 17th 2012